Portada
METAR-TAF:

METAR-TAF

Aeroports :

Grenoble, França

latitud: 45-22N, longitud: 005-20E, altitud: 384 m

Observació

L'informe es va fer fa 17 minuts, a les 20:30 UTC
Vent 9 kt del Est
Temperatura 15°C
Humitat 100%
Pressió 1019 hPa
Visibilitat 10 km o més
pluja

METAR: LFLS 012030Z AUTO 08009KT 9999 -RA ///CB 15/15 Q1019

Hora: 22:47 (20:47 UTC)

Pronòstic

L'informe es va fer fa 3 hores i 15 minuts, a les 17:32 UTC
Pronòstic vàlid del 01 a les 17 UTC al 02 a les 15 UTC
Vent 8 kt del Sud/Sud-Oest
Visibilitat 10 km o més
Núvols disperses a una alçada de 6000 ft
Temporalment
l' 01 a les 17 UTC al 01 a les 21 UTC
Escasses núvols a una alçada de 5000 ft, Cumulonimbus.
Cel cobert a una alçada de 6000 ft
tempesta, pluja
Probabilitat 30% :
Temporalment
l' 02 a les 03 UTC al 02 a les 08 UTC
Núvols disperses a una alçada de 5000 ft, Cumulus congestus.
xàfecs de pluja

TAF: LFLS 011732Z 0117/0215 20008KT 9999 SCT060 TEMPO 0117/0121 -TSRA FEW050CB OVC060 PROB30 TEMPO 0203/0208 SHRA SCT050TCU

Observacions i pronòstics meteorològics de més de 4000 aeroports (METAR i TAF).

Les estacions disponibles són els punts grocs i vermells al mapa.

Posi el ratolí al punt desitjat per veure el nom de l'estació.

Feu clic per veure les observacions i els pronòstics meteorològics.

Per canviar el mapa: feu clic els botons verds amb una creu de color negre per apropar; al botó verd amb un guió per allunyar la imatge; o en les fletxes verdes per a mapes adjacents.


METAR-TAF: